Time;durP1;ratioP1;P1;durP2;ratioP2;P2;SDS_P1;SDS_P2;PMS_P1;PMS_P2;Temp;Humidity;BMP_temperature;BMP_pressure;BME280_temperature;BME280_humidity;BME280_pressure;Samples;Min_cycle;Max_cycle;Signal;HPM_P1;HPM_P2
2021/04/10 00:59:27;;;;;;;;;;;;;;;;;;;;;
2021/04/10 01:08:45;;;;;;;9.07;6.63;;;12.50;56.20;;;;;;4854435;23;20459;-86
2021/04/10 01:11:22;;;;;;;8.53;6.37;;;12.40;56.10;;;;;;4927943;29;20450;-88
2021/04/10 01:14:00;;;;;;;6.77;6.03;;;12.40;56.30;;;;;;4941881;29;20931;-88
2021/04/10 01:16:34;;;;;;;10.30;5.90;;;12.50;55.90;;;;;;4939573;29;20522;-88
2021/04/10 01:19:22;;;;;;;4.90;4.23;;;12.60;55.70;;;;;;4944926;29;20477;-88
2021/04/10 01:22:08;;;;;;;6.60;4.87;;;12.60;55.10;;;;;;4943324;29;20446;-87
2021/04/10 01:24:53;;;;;;;6.60;3.60;;;12.70;55.10;;;;;;4946016;29;20434;-88
2021/04/10 01:27:37;;;;;;;5.23;4.07;;;12.80;54.70;;;;;;4945113;29;21066;-88
2021/04/10 01:30:14;;;;;;;4.57;4.13;;;12.80;54.60;;;;;;4936156;29;20466;-88
2021/04/10 01:32:59;;;;;;;8.10;4.87;;;13.00;54.30;;;;;;4937354;29;20856;-88
2021/04/10 01:36:19;;;;;;;5.30;4.00;;;13.00;54.50;;;;;;4938320;29;20439;-88
2021/04/10 01:38:54;;;;;;;6.47;4.70;;;13.10;54.40;;;;;;4931390;29;20461;-88
2021/04/10 01:41:25;;;;;;;4.80;2.80;;;13.00;54.60;;;;;;4951460;29;20454;-88
2021/04/10 01:44:01;;;;;;;4.00;3.13;;;13.00;54.30;;;;;;4944400;29;20448;-89
2021/04/10 01:46:30;;;;;;;4.20;3.80;;;13.00;54.40;;;;;;4942024;29;20443;-88
2021/04/10 01:49:01;;;;;;;3.73;2.70;;;13.00;54.40;;;;;;4940021;29;20505;-88
2021/04/10 01:51:27;;;;;;;4.80;2.07;;;13.10;54.20;;;;;;4934480;29;20459;-88
2021/04/10 01:53:59;;;;;;;2.40;1.77;;;13.20;53.90;;;;;;4926110;29;20826;-88
2021/04/10 01:56:26;;;;;;;4.00;2.07;;;13.20;53.80;;;;;;4933183;29;20457;-87
2021/04/10 01:58:59;;;;;;;3.40;1.93;;;13.40;53.20;;;;;;4926867;29;20818;-87
2021/04/10 02:01:32;;;;;;;7.50;2.40;;;13.50;53.10;;;;;;4933889;29;20552;-87
2021/04/10 02:03:59;;;;;;;4.70;1.80;;;13.50;53.00;;;;;;4942986;29;20462;-88
2021/04/10 02:06:27;;;;;;;3.03;1.80;;;13.40;53.10;;;;;;4942650;29;20939;-87
2021/04/10 02:08:55;;;;;;;2.23;1.80;;;13.40;53.20;;;;;;4953847;29;20492;-87
2021/04/10 02:11:22;;;;;;;4.40;2.53;;;13.50;53.10;;;;;;4960417;29;20434;-86
2021/04/10 02:13:49;;;;;;;3.13;2.17;;;13.50;53.40;;;;;;4948691;29;20451;-88
2021/04/10 02:16:18;;;;;;;4.00;1.60;;;13.50;53.30;;;;;;4941860;29;20434;-87
2021/04/10 02:18:44;;;;;;;3.37;2.00;;;13.40;53.30;;;;;;4940433;29;20469;-87
2021/04/10 02:21:11;;;;;;;2.63;2.03;;;13.40;53.40;;;;;;4939309;29;20874;-88
2021/04/10 02:23:42;;;;;;;3.90;1.90;;;13.40;53.40;;;;;;4943507;29;20438;-87
2021/04/10 02:26:09;;;;;;;3.40;2.07;;;13.50;53.50;;;;;;4940372;29;20456;-87
2021/04/10 02:28:44;;;;;;;2.63;1.87;;;13.50;53.30;;;;;;4935737;29;20579;-86
2021/04/10 02:31:16;;;;;;;3.40;2.33;;;13.40;53.70;;;;;;4937942;29;20493;-88
2021/04/10 02:33:45;;;;;;;3.20;2.47;;;13.40;53.70;;;;;;4940356;29;20453;-88
2021/04/10 02:36:16;;;;;;;3.00;2.03;;;13.40;53.70;;;;;;4939959;29;20447;-87
2021/04/10 02:38:45;;;;;;;3.17;1.60;;;13.30;54.00;;;;;;4940468;29;20472;-86
2021/04/10 02:41:14;;;;;;;3.30;1.57;;;13.40;53.70;;;;;;4950270;29;20505;-87
2021/04/10 02:43:44;;;;;;;3.13;1.67;;;13.30;54.00;;;;;;4940676;29;20450;-87
2021/04/10 02:46:12;;;;;;;3.07;1.57;;;13.30;54.40;;;;;;4940668;29;20445;-87
2021/04/10 02:48:44;;;;;;;5.13;2.43;;;13.30;54.40;;;;;;4946776;29;20485;-87
2021/04/10 02:51:13;;;;;;;2.93;2.30;;;13.30;54.40;;;;;;4946547;29;20434;-87
2021/04/10 02:53:41;;;;;;;2.27;2.00;;;13.20;54.70;;;;;;4954134;29;20477;-87
2021/04/10 02:56:11;;;;;;;3.33;1.60;;;13.30;54.50;;;;;;4952092;29;20443;-87
2021/04/10 02:58:40;;;;;;;5.23;3.33;;;13.30;54.50;;;;;;4940280;29;20469;-87
2021/04/10 03:01:07;;;;;;;3.83;2.00;;;13.30;54.50;;;;;;4942512;29;20450;-88
2021/04/10 03:03:34;;;;;;;2.67;1.93;;;13.30;54.70;;;;;;4934817;29;20469;-88
2021/04/10 03:06:03;;;;;;;3.47;2.30;;;13.20;54.80;;;;;;4939291;29;20445;-87
2021/04/10 03:08:31;;;;;;;1.80;1.50;;;13.20;54.70;;;;;;4939588;29;20486;-87
2021/04/10 03:10:58;;;;;;;3.60;2.47;;;13.30;54.60;;;;;;4956018;29;20434;-88
2021/04/10 03:13:24;;;;;;;2.60;1.67;;;13.30;54.80;;;;;;4948746;29;20451;-87
2021/04/10 03:15:53;;;;;;;3.50;1.90;;;13.20;55.10;;;;;;4945071;29;20427;-86
2021/04/10 03:18:20;;;;;;;6.10;2.20;;;13.20;55.20;;;;;;4954123;29;20438;-86
2021/04/10 03:20:47;;;;;;;2.53;2.00;;;13.30;55.00;;;;;;4959098;29;20477;-86
2021/04/10 03:23:14;;;;;;;2.17;1.90;;;13.30;54.90;;;;;;4961522;29;20449;-86
2021/04/10 03:25:41;;;;;;;1.97;1.67;;;13.30;54.90;;;;;;4961081;29;20513;-86
2021/04/10 03:28:10;;;;;;;2.30;1.70;;;13.30;55.20;;;;;;4960927;29;20484;-88
2021/04/10 03:30:37;;;;;;;3.43;1.80;;;13.30;55.40;;;;;;4960767;29;20495;-86
2021/04/10 03:33:04;;;;;;;3.70;2.10;;;13.40;55.50;;;;;;4943138;29;20532;-87
2021/04/10 03:35:33;;;;;;;4.67;1.97;;;13.40;55.30;;;;;;4942768;29;20430;-87
2021/04/10 03:38:07;;;;;;;3.93;2.10;;;13.40;55.60;;;;;;4955694;29;20456;-86
2021/04/10 03:40:36;;;;;;;2.90;2.13;;;13.40;55.90;;;;;;4960520;29;20422;-86
2021/04/10 03:43:08;;;;;;;4.40;2.00;;;13.40;55.90;;;;;;4950789;29;20534;-88
2021/04/10 03:45:42;;;;;;;4.10;2.00;;;13.40;56.00;;;;;;4959462;29;20480;-87
2021/04/10 03:48:17;;;;;;;5.67;2.63;;;13.40;55.80;;;;;;4960297;29;20496;-87
2021/04/10 03:50:46;;;;;;;4.80;1.83;;;13.40;55.90;;;;;;4942639;29;20486;-88
2021/04/10 03:53:14;;;;;;;2.13;1.60;;;13.40;56.70;;;;;;4957110;29;20446;-87
2021/04/10 03:55:43;;;;;;;2.73;2.03;;;13.40;56.30;;;;;;4957187;29;20461;-87
2021/04/10 03:58:15;;;;;;;3.07;1.80;;;13.30;56.60;;;;;;4942989;29;20470;-87
2021/04/10 04:00:49;;;;;;;4.00;1.97;;;13.20;57.20;;;;;;4933731;29;20582;-87
2021/04/10 04:03:16;;;;;;;4.63;1.67;;;13.30;57.40;;;;;;4928120;29;20476;-87
2021/04/10 04:05:44;;;;;;;6.10;1.67;;;13.20;57.50;;;;;;4934250;29;20787;-87
2021/04/10 04:08:16;;;;;;;3.33;1.70;;;13.30;57.70;;;;;;4939126;29;20563;-88
2021/04/10 04:10:43;;;;;;;2.73;1.50;;;13.20;58.00;;;;;;4941019;29;20490;-87
2021/04/10 04:13:12;;;;;;;2.80;1.60;;;13.20;58.40;;;;;;4939450;29;20470;-87
2021/04/10 04:15:38;;;;;;;3.17;1.53;;;13.20;58.80;;;;;;4939106;29;20571;-87
2021/04/10 04:18:04;;;;;;;4.13;1.90;;;13.20;59.00;;;;;;4941356;29;20453;-88
2021/04/10 04:20:33;;;;;;;1.73;1.27;;;13.10;59.10;;;;;;4955963;29;20526;-87
2021/04/10 04:22:59;;;;;;;2.93;1.90;;;13.20;59.40;;;;;;4939588;29;20438;-87
2021/04/10 04:25:28;;;;;;;3.50;1.73;;;13.20;59.50;;;;;;4947661;29;20450;-88
2021/04/10 04:27:55;;;;;;;3.60;1.67;;;13.10;59.60;;;;;;4941898;29;20488;-87
2021/04/10 04:30:27;;;;;;;2.10;1.50;;;13.10;59.90;;;;;;4940431;29;20502;-87
2021/04/10 04:32:58;;;;;;;3.47;2.03;;;13.10;60.00;;;;;;4940956;29;20513;-88
2021/04/10 04:35:35;;;;;;;3.60;1.73;;;13.10;60.10;;;;;;4944219;29;20460;-88
2021/04/10 04:38:03;;;;;;;2.03;1.67;;;13.00;60.20;;;;;;4935862;29;20537;-87
2021/04/10 04:40:29;;;;;;;3.70;1.90;;;13.00;60.80;;;;;;4939811;29;20508;-88
2021/04/10 04:42:59;;;;;;;2.20;1.50;;;13.00;60.80;;;;;;4946153;29;20446;-87
2021/04/10 04:45:28;;;;;;;3.20;1.70;;;13.00;61.00;;;;;;4942280;29;20460;-87
2021/04/10 04:48:02;;;;;;;2.40;1.83;;;13.00;61.20;;;;;;4952879;29;20474;-85
2021/04/10 04:50:30;;;;;;;2.03;1.93;;;12.90;61.50;;;;;;4950160;29;20489;-87
2021/04/10 04:52:56;;;;;;;3.87;1.87;;;13.00;61.70;;;;;;4934367;29;20527;-87
2021/04/10 04:55:23;;;;;;;1.73;1.47;;;12.90;61.60;;;;;;4942315;29;20449;-87
2021/04/10 04:57:49;;;;;;;1.80;1.40;;;12.90;61.60;;;;;;4947641;29;20448;-87
2021/04/10 05:00:19;;;;;;;2.77;1.23;;;12.80;61.70;;;;;;4938578;29;20865;-88
2021/04/10 05:02:55;;;;;;;3.87;1.70;;;12.80;61.70;;;;;;4937286;29;20503;-87
2021/04/10 05:05:21;;;;;;;4.90;1.60;;;12.70;61.90;;;;;;4935754;29;21003;-88
2021/04/10 05:07:50;;;;;;;4.63;1.77;;;12.70;61.90;;;;;;4937361;29;20526;-87
2021/04/10 05:10:16;;;;;;;2.80;1.50;;;12.60;62.10;;;;;;4942210;29;20465;-88
2021/04/10 05:12:42;;;;;;;2.63;1.80;;;12.60;62.40;;;;;;4926894;29;20463;-87
2021/04/10 05:15:10;;;;;;;2.57;1.70;;;12.60;63.30;;;;;;4933001;29;20628;-89
2021/04/10 05:17:38;;;;;;;2.80;1.40;;;12.50;64.30;;;;;;4929073;29;20459;-87
2021/04/10 05:20:08;;;;;;;4.63;1.90;;;12.40;66.40;;;;;;4937698;29;20470;-87
2021/04/10 05:22:34;;;;;;;2.60;2.00;;;12.30;68.20;;;;;;4932357;29;21076;-87
2021/04/10 05:25:01;;;;;;;3.43;1.60;;;12.20;69.90;;;;;;4928946;29;20451;-88
2021/04/10 05:27:27;;;;;;;4.07;1.80;;;12.10;70.60;;;;;;4924910;29;20510;-88
2021/04/10 05:29:53;;;;;;;3.43;1.83;;;12.00;70.80;;;;;;4924487;29;20983;-87
2021/04/10 05:32:20;;;;;;;7.13;1.90;;;12.00;71.60;;;;;;4928091;29;20450;-87
2021/04/10 05:34:46;;;;;;;2.43;1.60;;;12.00;71.40;;;;;;4930572;29;20622;-87
2021/04/10 05:37:19;;;;;;;2.87;1.77;;;12.00;71.40;;;;;;4912109;29;20516;-88
2021/04/10 05:39:45;;;;;;;2.90;2.40;;;12.00;71.50;;;;;;4911010;29;20478;-88
2021/04/10 05:42:11;;;;;;;2.53;1.30;;;12.00;71.30;;;;;;4924386;29;20451;-88
2021/04/10 05:44:37;;;;;;;2.67;1.37;;;12.00;71.40;;;;;;4929362;29;20450;-87
2021/04/10 05:47:04;;;;;;;2.17;1.80;;;12.00;71.20;;;;;;4941285;29;20450;-88
2021/04/10 05:49:30;;;;;;;2.93;1.70;;;12.00;71.10;;;;;;4929383;29;20545;-88
2021/04/10 05:51:56;;;;;;;3.30;1.80;;;11.90;70.90;;;;;;4912114;29;20972;-87
2021/04/10 05:54:26;;;;;;;3.93;3.20;;;11.90;71.00;;;;;;4915165;29;20463;-87
2021/04/10 05:56:53;;;;;;;2.33;2.13;;;11.90;70.80;;;;;;4924817;29;20526;-87
2021/04/10 05:59:19;;;;;;;2.97;1.60;;;12.00;70.60;;;;;;4924353;29;20449;-86
2021/04/10 06:01:45;;;;;;;8.20;2.30;;;12.00;70.10;;;;;;4912032;29;20442;-88
2021/04/10 06:04:12;;;;;;;6.90;1.63;;;12.00;69.50;;;;;;4908232;29;20455;-88
2021/04/10 06:06:43;;;;;;;2.80;1.87;;;12.00;68.90;;;;;;4908199;29;20459;-88
2021/04/10 06:19:37;;;;;;;2.40;1.60;;;12.10;68.00;;;;;;4826792;29;20467;-89
2021/04/10 06:22:40;;;;;;;2.47;2.10;;;12.10;67.80;;;;;;4830127;29;20488;-89
2021/04/10 06:25:16;;;;;;;2.43;1.80;;;12.20;67.60;;;;;;4821113;29;20463;-90
2021/04/10 06:28:18;;;;;;;2.00;1.70;;;12.10;67.40;;;;;;4848117;29;20461;-89
2021/04/10 06:31:08;;;;;;;;;;;;;;;;;;;;;
2021/04/10 06:36:54;;;;;;;2.37;1.87;;;12.20;67.70;;;;;;4876504;29;20827;-86
2021/04/10 06:39:24;;;;;;;6.90;2.27;;;12.20;67.90;;;;;;4902442;29;20483;-88
2021/04/10 06:41:51;;;;;;;3.60;2.40;;;12.20;68.00;;;;;;4905824;29;21138;-89
2021/04/10 06:44:51;;;;;;;3.63;1.80;;;12.20;67.80;;;;;;4907766;29;21007;-86
2021/04/10 06:50:07;;;;;;;4.13;2.27;;;12.20;68.10;;;;;;4904822;29;20464;-86
2021/04/10 06:52:40;;;;;;;3.10;1.63;;;12.30;68.40;;;;;;4908258;29;20436;-86
2021/04/10 06:55:10;;;;;;;3.50;1.90;;;12.30;68.20;;;;;;4908478;29;20498;-85
2021/04/10 06:57:48;;;;;;;3.03;1.50;;;12.30;68.40;;;;;;4916087;29;20460;-84
2021/04/10 07:00:15;;;;;;;3.13;1.70;;;12.20;68.60;;;;;;4934594;29;20539;-85
2021/04/10 07:02:43;;;;;;;2.10;1.90;;;12.20;70.00;;;;;;4926873;29;20982;-83
2021/04/10 07:05:10;;;;;;;2.43;1.90;;;12.20;69.10;;;;;;4927536;29;20455;-83
2021/04/10 07:07:38;;;;;;;6.13;2.00;;;12.30;69.30;;;;;;4926887;29;20998;-84
2021/04/10 07:10:05;;;;;;;3.77;1.60;;;12.30;69.40;;;;;;4942589;23;20493;-87
2021/04/10 07:12:32;;;;;;;3.73;1.73;;;12.30;69.70;;;;;;4938747;29;20428;-90
2021/04/10 07:14:58;;;;;;;6.30;2.40;;;12.20;70.30;;;;;;4935939;29;20450;-89
2021/04/10 07:17:24;;;;;;;4.30;2.20;;;12.20;70.50;;;;;;4937571;29;20451;-89
2021/04/10 07:19:50;;;;;;;3.67;2.23;;;12.10;71.80;;;;;;4938384;29;20520;-89
2021/04/10 07:22:17;;;;;;;2.40;1.83;;;12.10;72.20;;;;;;4930785;29;20845;-86
2021/04/10 07:24:46;;;;;;;2.37;1.80;;;12.10;72.30;;;;;;4933410;29;20427;-86
2021/04/10 07:27:14;;;;;;;2.73;2.40;;;12.10;71.80;;;;;;4932444;29;20446;-85
2021/04/10 07:29:42;;;;;;;4.07;2.47;;;12.20;71.90;;;;;;4922792;29;20490;-86
2021/04/10 07:32:27;;;;;;;3.67;1.93;;;12.20;71.70;;;;;;4922007;29;20447;-86
2021/04/10 07:34:55;;;;;;;6.23;3.03;;;12.30;71.50;;;;;;4920580;29;20513;-86
2021/04/10 07:37:33;;;;;;;4.30;2.70;;;12.30;71.40;;;;;;4918264;29;20459;-87
2021/04/10 07:40:54;;;;;;;2.00;1.77;;;12.40;71.30;;;;;;4917406;29;20467;-87
2021/04/10 07:58:48;;;;;;;2.73;1.77;;;12.50;70.60;;;;;;4751500;30;20479;-87
2021/04/10 08:09:13;;;;;;;4.13;1.60;;;12.50;70.70;;;;;;4853964;29;20473;-86
2021/04/10 08:53:49;;;;;;;3.70;1.50;;;12.30;73.60;;;;;;4631986;30;20444;-84
2021/04/10 08:56:20;;;;;;;2.43;1.87;;;12.30;74.50;;;;;;4745171;30;20455;-84
2021/04/10 08:58:46;;;;;;;2.13;1.90;;;12.40;74.60;;;;;;4806537;29;20441;-83
2021/04/10 09:01:18;;;;;;;3.77;1.60;;;12.40;74.50;;;;;;4919979;29;20522;-84
2021/04/10 09:03:52;;;;;;;2.23;1.67;;;12.40;74.00;;;;;;4918741;29;20447;-83
2021/04/10 09:06:46;;;;;;;1.60;1.50;;;12.40;75.00;;;;;;4919069;29;20827;-85
2021/04/10 09:09:32;;;;;;;1.67;1.57;;;12.40;73.60;;;;;;4918802;29;20891;-85
2021/04/10 09:12:19;;;;;;;3.23;1.47;;;12.50;73.50;;;;;;4937868;29;20441;-83
2021/04/10 09:14:47;;;;;;;3.77;2.80;;;12.60;72.40;;;;;;4926532;29;20470;-84
2021/04/10 09:17:13;;;;;;;2.80;1.57;;;12.70;71.50;;;;;;4924329;29;20459;-83
2021/04/10 09:19:40;;;;;;;1.80;1.67;;;12.80;71.60;;;;;;4936353;29;20470;-84
2021/04/10 09:22:06;;;;;;;2.50;1.83;;;12.90;71.30;;;;;;4932613;29;20461;-84
2021/04/10 09:24:41;;;;;;;2.33;1.40;;;12.90;70.40;;;;;;4934402;29;20439;-85
2021/04/10 09:27:18;;;;;;;2.30;1.43;;;13.00;70.20;;;;;;4927915;29;20887;-86
2021/04/10 09:29:50;;;;;;;1.87;1.73;;;13.10;70.40;;;;;;4922279;29;20482;-86
2021/04/10 09:32:33;;;;;;;2.03;1.30;;;13.00;69.20;;;;;;4938844;29;20441;-86
2021/04/10 09:35:01;;;;;;;2.97;1.73;;;12.90;68.80;;;;;;4920097;29;20478;-87
2021/04/10 09:38:01;;;;;;;2.50;1.27;;;12.90;69.30;;;;;;4921773;29;20476;-86
2021/04/10 09:40:50;;;;;;;2.17;1.20;;;13.00;68.70;;;;;;4919681;29;20556;-86
2021/04/10 09:43:21;;;;;;;2.63;1.67;;;13.00;68.50;;;;;;4923869;29;20450;-87
2021/04/10 09:45:49;;;;;;;3.63;1.43;;;13.00;68.10;;;;;;4933951;29;20455;-86
2021/04/10 09:48:36;;;;;;;2.10;1.70;;;13.10;68.00;;;;;;4933571;29;20482;-86
2021/04/10 09:51:04;;;;;;;2.50;2.30;;;13.20;68.40;;;;;;4930606;29;20557;-86
2021/04/10 09:53:32;;;;;;;1.40;1.30;;;13.30;67.70;;;;;;4935347;29;20493;-86
2021/04/10 09:56:05;;;;;;;1.63;1.53;;;13.40;67.50;;;;;;4922970;29;20454;-87
2021/04/10 09:58:36;;;;;;;1.97;1.50;;;13.50;66.60;;;;;;4936482;29;20481;-88
2021/04/10 10:01:12;;;;;;;1.90;1.60;;;13.50;67.10;;;;;;4934805;29;20555;-87
2021/04/10 10:03:38;;;;;;;2.43;1.70;;;13.60;66.30;;;;;;4928571;29;20446;-86
2021/04/10 10:06:17;;;;;;;4.40;2.00;;;13.60;66.20;;;;;;4940386;29;20440;-87
2021/04/10 10:08:44;;;;;;;2.00;1.60;;;13.60;66.70;;;;;;4935494;29;20478;-87
2021/04/10 10:11:12;;;;;;;2.47;1.73;;;13.70;66.60;;;;;;4924604;29;20486;-87
2021/04/10 10:13:39;;;;;;;2.50;1.50;;;13.60;66.60;;;;;;4923486;29;20503;-87
2021/04/10 10:16:06;;;;;;;1.40;1.30;;;13.70;66.60;;;;;;4923711;29;20458;-86
2021/04/10 10:18:34;;;;;;;3.10;1.50;;;13.70;66.30;;;;;;4923500;29;20488;-87
2021/04/10 10:21:02;;;;;;;6.40;2.00;;;13.70;66.20;;;;;;4921409;29;20550;-87
2021/04/10 10:23:31;;;;;;;3.20;1.43;;;13.70;65.40;;;;;;4921607;29;20486;-87
2021/04/10 10:26:05;;;;;;;2.00;1.70;;;13.80;66.10;;;;;;4921176;29;20452;-85
2021/04/10 10:28:32;;;;;;;3.10;1.83;;;13.80;65.70;;;;;;4922786;29;20485;-85
2021/04/10 10:31:07;;;;;;;6.90;1.50;;;13.80;65.40;;;;;;4921809;29;20859;-86
2021/04/10 10:33:34;;;;;;;4.40;1.60;;;13.90;65.00;;;;;;4937514;29;20458;-86
2021/04/10 10:36:01;;;;;;;3.33;2.07;;;13.90;65.20;;;;;;4941128;29;20458;-86
2021/04/10 10:38:33;;;;;;;3.87;1.40;;;13.90;65.20;;;;;;4935891;29;20555;-86
2021/04/10 10:40:59;;;;;;;1.70;1.60;;;13.90;64.30;;;;;;4926282;29;20527;-86
2021/04/10 10:43:26;;;;;;;2.07;1.20;;;13.80;64.30;;;;;;4922917;29;20971;-86
2021/04/10 10:45:55;;;;;;;2.27;1.60;;;13.70;64.30;;;;;;4922247;29;20447;-87
2021/04/10 10:48:27;;;;;;;2.43;1.50;;;13.70;64.50;;;;;;4921063;29;20486;-87
2021/04/10 10:50:56;;;;;;;2.80;1.30;;;13.70;64.70;;;;;;4929457;29;20501;-87
2021/04/10 10:53:23;;;;;;;3.90;1.70;;;13.70;64.80;;;;;;4935366;29;20423;-87
2021/04/10 10:56:18;;;;;;;3.93;2.83;;;13.80;64.70;;;;;;4937380;29;20434;-86
2021/04/10 10:58:47;;;;;;;3.93;1.60;;;13.90;63.90;;;;;;4921936;29;20428;-86
2021/04/10 11:01:16;;;;;;;3.07;1.50;;;14.00;63.70;;;;;;4936232;29;20532;-85
2021/04/10 11:03:45;;;;;;;2.53;1.40;;;14.20;63.70;;;;;;4938372;29;20460;-86
2021/04/10 11:06:15;;;;;;;2.47;1.57;;;14.30;63.00;;;;;;4922453;29;20544;-87
2021/04/10 11:08:43;;;;;;;1.90;1.27;;;14.50;62.60;;;;;;4921723;29;20491;-86
2021/04/10 11:11:10;;;;;;;2.30;1.40;;;14.80;61.90;;;;;;4921086;29;20971;-86
2021/04/10 11:13:36;;;;;;;2.57;1.60;;;15.10;61.30;;;;;;4921048;29;20464;-87
2021/04/10 11:16:04;;;;;;;3.83;1.60;;;15.50;60.30;;;;;;4925411;29;20458;-87
2021/04/10 11:18:32;;;;;;;3.73;1.20;;;15.40;58.90;;;;;;4934328;29;20456;-87
2021/04/10 11:21:24;;;;;;;2.87;1.57;;;15.40;59.30;;;;;;4939281;29;20476;-87
2021/04/10 11:24:12;;;;;;;4.20;1.40;;;15.50;59.40;;;;;;4928192;29;20449;-87
2021/04/10 11:26:48;;;;;;;2.17;1.60;;;15.80;59.40;;;;;;4930565;29;20509;-87
2021/04/10 11:29:16;;;;;;;2.40;1.40;;;16.20;58.20;;;;;;4924141;29;20491;-87
2021/04/10 11:31:43;;;;;;;3.10;1.30;;;16.30;57.10;;;;;;4921048;29;20837;-87
2021/04/10 11:34:28;;;;;;;1.60;1.20;;;16.40;57.10;;;;;;4922080;29;20450;-87
2021/04/10 11:36:55;;;;;;;1.93;1.10;;;16.60;57.00;;;;;;4923009;29;20442;-87
2021/04/10 11:39:22;;;;;;;1.53;1.20;;;17.10;56.70;;;;;;4925140;29;20525;-87
2021/04/10 11:41:50;;;;;;;4.77;1.40;;;17.50;54.70;;;;;;4925242;29;20467;-87
2021/04/10 11:44:17;;;;;;;1.70;1.27;;;17.80;54.90;;;;;;4934867;29;20458;-85
2021/04/10 11:46:44;;;;;;;1.60;1.40;;;18.00;54.10;;;;;;4933282;29;20538;-86
2021/04/10 11:49:22;;;;;;;2.00;1.23;;;18.00;53.60;;;;;;4935651;29;20478;-86
2021/04/10 11:51:50;;;;;;;2.63;1.57;;;17.90;53.80;;;;;;4933378;29;20454;-86
2021/04/10 11:54:29;;;;;;;3.17;1.33;;;17.90;53.40;;;;;;4923607;29;20989;-87
2021/04/10 11:56:56;;;;;;;2.20;1.50;;;17.60;53.40;;;;;;4924125;29;20545;-86
2021/04/10 11:59:31;;;;;;;2.30;1.17;;;17.30;54.40;;;;;;4939012;29;20502;-87
2021/04/10 12:02:00;;;;;;;2.60;1.30;;;17.40;54.90;;;;;;4935504;29;20484;-87
2021/04/10 12:04:27;;;;;;;3.50;1.53;;;17.60;55.00;;;;;;4937990;29;20447;-87
2021/04/10 12:07:04;;;;;;;3.33;1.30;;;17.50;54.20;;;;;;4924325;29;20490;-87
2021/04/10 12:09:34;;;;;;;1.67;1.10;;;17.70;54.00;;;;;;4932959;29;20489;-87
2021/04/10 12:12:01;;;;;;;3.23;1.70;;;17.80;54.10;;;;;;4923566;29;20521;-88
2021/04/10 12:14:27;;;;;;;2.50;1.80;;;17.60;54.00;;;;;;4920241;29;20524;-86
2021/04/10 12:16:53;;;;;;;3.57;1.00;;;18.00;54.40;;;;;;4921178;29;20514;-87
2021/04/10 12:19:21;;;;;;;2.43;1.20;;;18.40;53.50;;;;;;4920526;29;20458;-87
2021/04/10 12:21:49;;;;;;;2.70;1.60;;;18.70;52.60;;;;;;4921204;29;20467;-87
2021/04/10 12:24:16;;;;;;;1.60;1.10;;;19.10;51.80;;;;;;4925675;29;20472;-89
2021/04/10 12:26:43;;;;;;;3.20;1.43;;;19.50;50.60;;;;;;4924698;29;20543;-87
2021/04/10 12:29:09;;;;;;;1.43;1.10;;;20.80;49.00;;;;;;4939331;29;20474;-86
2021/04/10 12:31:36;;;;;;;2.43;1.20;;;20.30;48.60;;;;;;4940894;29;20453;-87
2021/04/10 12:34:02;;;;;;;1.30;1.00;;;20.30;49.50;;;;;;4941100;29;20450;-87
2021/04/10 12:36:30;;;;;;;1.30;1.10;;;20.40;48.40;;;;;;4941235;29;20775;-87
2021/04/10 12:38:57;;;;;;;2.10;1.43;;;20.30;48.40;;;;;;4940850;29;20439;-86
2021/04/10 12:41:25;;;;;;;9.40;2.10;;;20.20;49.30;;;;;;4941077;29;21375;-86
2021/04/10 12:43:52;;;;;;;2.50;1.30;;;19.90;49.20;;;;;;4940159;29;20498;-87
2021/04/10 12:46:19;;;;;;;1.27;1.07;;;19.70;49.40;;;;;;4938843;29;20535;-87
2021/04/10 12:48:46;;;;;;;2.67;1.40;;;19.60;49.70;;;;;;4939645;29;20486;-87
2021/04/10 12:51:13;;;;;;;2.73;1.37;;;19.30;49.90;;;;;;4929267;29;20475;-87
2021/04/10 12:53:40;;;;;;;2.57;1.67;;;19.30;50.20;;;;;;4926983;29;20514;-87
2021/04/10 12:56:07;;;;;;;1.20;1.10;;;19.30;49.70;;;;;;4939481;29;20457;-88
2021/04/10 12:58:34;;;;;;;1.53;1.30;;;19.80;49.40;;;;;;4938432;29;20470;-87
2021/04/10 13:01:00;;;;;;;1.87;1.30;;;21.80;46.90;;;;;;4926171;29;20477;-88
2021/04/10 13:03:27;;;;;;;1.30;1.20;;;24.20;44.10;;;;;;4923061;29;20470;-86
2021/04/10 13:05:53;;;;;;;3.10;1.50;;;26.10;39.60;;;;;;4923104;29;20544;-87
2021/04/10 13:08:20;;;;;;;2.00;1.50;;;28.20;37.20;;;;;;4921384;29;20458;-86
2021/04/10 13:10:47;;;;;;;1.20;1.10;;;29.60;34.10;;;;;;4920908;29;20458;-87
2021/04/10 13:13:13;;;;;;;2.70;1.80;;;29.90;32.70;;;;;;4920007;29;20466;-88
2021/04/10 13:15:41;;;;;;;1.13;1.03;;;30.20;31.80;;;;;;4920493;29;20935;-86
2021/04/10 13:18:08;;;;;;;4.60;1.50;;;29.10;33.10;;;;;;4923174;29;20455;-87
2021/04/10 13:20:34;;;;;;;2.70;1.47;;;29.00;32.90;;;;;;4920341;29;20492;-88
2021/04/10 13:23:01;;;;;;;1.70;1.30;;;29.90;32.30;;;;;;4921325;29;20522;-87
2021/04/10 13:25:28;;;;;;;1.50;1.27;;;29.70;32.10;;;;;;4918914;29;20447;-87
2021/04/10 13:27:54;;;;;;;1.50;1.40;;;28.00;32.00;;;;;;4918668;29;20545;-86
2021/04/10 13:30:22;;;;;;;1.63;1.40;;;26.70;34.00;;;;;;4921663;29;20489;-87
2021/04/10 13:32:50;;;;;;;1.57;1.20;;;24.70;35.70;;;;;;4922606;29;20522;-87
2021/04/10 13:35:16;;;;;;;2.50;1.77;;;24.10;37.60;;;;;;4921209;29;20468;-87
2021/04/10 13:37:43;;;;;;;1.33;0.90;;;26.20;36.10;;;;;;4921606;29;20462;-87
2021/04/10 13:40:10;;;;;;;1.57;1.47;;;26.30;34.30;;;;;;4924277;29;20457;-87
2021/04/10 13:42:39;;;;;;;2.20;1.27;;;25.50;34.70;;;;;;4924051;29;20461;-86
2021/04/10 13:45:07;;;;;;;1.27;1.17;;;25.30;35.50;;;;;;4925421;29;20442;-86
2021/04/10 13:47:33;;;;;;;1.43;0.93;;;25.10;36.50;;;;;;4924572;29;20481;-87
2021/04/10 13:50:03;;;;;;;1.40;1.30;;;24.50;36.20;;;;;;4923740;29;20543;-91
2021/04/10 13:52:29;;;;;;;1.63;1.20;;;24.10;36.40;;;;;;4941551;29;20459;-83
2021/04/10 13:54:55;;;;;;;1.07;0.97;;;23.80;36.80;;;;;;4934105;29;20439;-86
2021/04/10 13:57:21;;;;;;;1.37;1.23;;;22.20;38.00;;;;;;4919768;29;20509;-83
2021/04/10 13:59:48;;;;;;;2.03;1.70;;;22.00;39.50;;;;;;4934199;29;20464;-83
2021/04/10 14:02:14;;;;;;;2.20;1.60;;;22.20;39.40;;;;;;4934081;29;20465;-84
2021/04/10 14:05:02;;;;;;;2.10;1.43;;;22.10;40.30;;;;;;4927941;29;20457;-84
2021/04/10 14:07:30;;;;;;;2.50;1.83;;;22.70;39.60;;;;;;4936215;29;20469;-83
2021/04/10 14:09:56;;;;;;;1.67;1.40;;;22.80;39.50;;;;;;4936868;29;20481;-83
2021/04/10 14:12:23;;;;;;;1.20;1.10;;;22.50;39.90;;;;;;4934589;29;20449;-83
2021/04/10 14:14:49;;;;;;;2.30;1.60;;;21.60;40.60;;;;;;4936558;29;20432;-83
2021/04/10 14:17:15;;;;;;;1.60;1.13;;;21.90;40.70;;;;;;4932283;29;20446;-83
2021/04/10 14:19:42;;;;;;;2.77;1.60;;;23.10;40.00;;;;;;4923145;29;20793;-85
2021/04/10 14:22:09;;;;;;;1.70;1.60;;;24.10;38.70;;;;;;4922365;29;20458;-84
2021/04/10 14:24:36;;;;;;;2.77;2.03;;;23.80;38.10;;;;;;4921755;29;20470;-83
2021/04/10 14:27:02;;;;;;;2.87;1.90;;;22.70;39.50;;;;;;4923553;29;20451;-83
2021/04/10 14:29:31;;;;;;;2.10;1.70;;;21.80;40.80;;;;;;4923458;29;20999;-83
2021/04/10 14:31:57;;;;;;;2.10;1.57;;;21.90;40.90;;;;;;4921992;29;20481;-83
2021/04/10 14:34:23;;;;;;;1.80;1.70;;;21.90;40.80;;;;;;4922053;29;20449;-81
2021/04/10 14:36:51;;;;;;;1.57;1.47;;;22.00;40.80;;;;;;4920274;29;20453;-81
2021/04/10 14:39:19;;;;;;;2.77;1.77;;;21.80;41.00;;;;;;4925827;29;20484;-82
2021/04/10 14:41:45;;;;;;;2.17;1.97;;;22.50;39.80;;;;;;4938609;29;20453;-83
2021/04/10 14:44:11;;;;;;;2.93;1.93;;;23.30;38.80;;;;;;4939368;29;20458;-83
2021/04/10 14:46:37;;;;;;;5.20;1.90;;;23.50;38.30;;;;;;4928586;29;20446;-83
2021/04/10 14:49:04;;;;;;;3.70;1.70;;;23.10;38.50;;;;;;4932463;29;20482;-83
2021/04/10 14:51:30;;;;;;;2.33;2.03;;;22.30;38.80;;;;;;4939120;29;20483;-84
2021/04/10 14:53:56;;;;;;;1.50;1.30;;;22.40;39.60;;;;;;4928892;29;20887;-84
2021/04/10 14:56:24;;;;;;;4.60;1.90;;;22.80;39.30;;;;;;4924419;29;20451;-84
2021/04/10 14:58:52;;;;;;;2.07;1.50;;;22.70;39.10;;;;;;4923325;29;20454;-84
2021/04/10 15:01:18;;;;;;;1.57;1.27;;;22.90;39.20;;;;;;4920331;29;20552;-84
2021/04/10 15:03:44;;;;;;;1.50;1.33;;;23.30;38.80;;;;;;4920871;29;20451;-84
2021/04/10 15:06:14;;;;;;;1.30;1.20;;;23.80;38.50;;;;;;4920194;29;20534;-84
2021/04/10 15:08:41;;;;;;;2.60;1.63;;;24.30;35.90;;;;;;4920490;29;20913;-83
2021/04/10 15:11:08;;;;;;;1.63;1.30;;;24.00;35.70;;;;;;4918559;29;20470;-84
2021/04/10 15:13:35;;;;;;;2.93;1.70;;;23.80;34.60;;;;;;4928425;29;20442;-85
2021/04/10 15:16:02;;;;;;;3.53;1.30;;;23.90;35.10;;;;;;4934676;29;20450;-85
2021/04/10 15:18:29;;;;;;;1.73;1.30;;;23.90;35.20;;;;;;4927270;29;21000;-83
2021/04/10 15:25:00;;;;;;;1.80;1.30;;;22.80;35.00;;;;;;4919917;29;20477;-84
2021/04/10 15:37:48;;;;;;;4.33;2.20;;;21.50;38.80;;;;;;4927571;29;20533;-84
2021/04/10 15:41:14;;;;;;;2.07;1.63;;;21.50;39.40;;;;;;4896182;29;20568;-84
2021/04/10 15:44:24;;;;;;;2.53;1.50;;;21.20;38.20;;;;;;4894214;29;20470;-84
2021/04/10 16:08:49;;;;;;;3.07;1.47;;;19.20;41.10;;;;;;4770677;30;20948;-85